sensor_id;sensor_type;location;lat;lon;timestamp;P1;durP1;ratioP1;P2;durP2;ratioP2
249;SDS011;109;19.806;-70.704;2023-08-24T00:02:17;14.43;;;5.07;;
249;SDS011;109;19.806;-70.704;2023-08-24T00:04:44;11.40;;;5.20;;
249;SDS011;109;19.806;-70.704;2023-08-24T00:07:10;12.60;;;4.80;;
249;SDS011;109;19.806;-70.704;2023-08-24T00:09:37;12.83;;;5.00;;
249;SDS011;109;19.806;-70.704;2023-08-24T00:12:03;6.17;;;4.30;;
249;SDS011;109;19.806;-70.704;2023-08-24T00:14:30;9.60;;;4.50;;
249;SDS011;109;19.806;-70.704;2023-08-24T00:16:58;5.87;;;4.10;;
249;SDS011;109;19.806;-70.704;2023-08-24T00:19:24;7.70;;;4.60;;
249;SDS011;109;19.806;-70.704;2023-08-24T00:21:50;9.07;;;4.37;;
249;SDS011;109;19.806;-70.704;2023-08-24T00:24:23;5.47;;;4.53;;
249;SDS011;109;19.806;-70.704;2023-08-24T00:26:50;7.73;;;4.60;;
249;SDS011;109;19.806;-70.704;2023-08-24T00:29:22;6.87;;;4.17;;
249;SDS011;109;19.806;-70.704;2023-08-24T00:31:49;6.27;;;3.80;;
249;SDS011;109;19.806;-70.704;2023-08-24T00:34:21;6.67;;;4.40;;
249;SDS011;109;19.806;-70.704;2023-08-24T00:36:48;6.30;;;3.60;;
249;SDS011;109;19.806;-70.704;2023-08-24T00:39:22;5.07;;;3.70;;
249;SDS011;109;19.806;-70.704;2023-08-24T00:41:49;9.97;;;4.63;;
249;SDS011;109;19.806;-70.704;2023-08-24T00:44:22;8.07;;;4.20;;
249;SDS011;109;19.806;-70.704;2023-08-24T00:47:02;15.00;;;4.40;;
249;SDS011;109;19.806;-70.704;2023-08-24T00:49:29;5.03;;;3.87;;
249;SDS011;109;19.806;-70.704;2023-08-24T00:52:02;6.53;;;3.80;;
249;SDS011;109;19.806;-70.704;2023-08-24T00:54:29;7.80;;;3.80;;
249;SDS011;109;19.806;-70.704;2023-08-24T00:57:03;8.43;;;4.07;;
249;SDS011;109;19.806;-70.704;2023-08-24T00:59:29;4.33;;;3.50;;
249;SDS011;109;19.806;-70.704;2023-08-24T01:02:03;7.20;;;3.80;;
249;SDS011;109;19.806;-70.704;2023-08-24T01:04:30;9.00;;;3.57;;
249;SDS011;109;19.806;-70.704;2023-08-24T01:07:03;6.93;;;4.40;;
249;SDS011;109;19.806;-70.704;2023-08-24T01:09:30;7.40;;;3.80;;
249;SDS011;109;19.806;-70.704;2023-08-24T01:12:13;5.83;;;3.87;;
249;SDS011;109;19.806;-70.704;2023-08-24T01:15:17;8.57;;;3.67;;
249;SDS011;109;19.806;-70.704;2023-08-24T01:18:04;4.33;;;3.37;;
249;SDS011;109;19.806;-70.704;2023-08-24T01:20:42;4.90;;;3.77;;
249;SDS011;109;19.806;-70.704;2023-08-24T01:23:31;4.07;;;3.57;;
249;SDS011;109;19.806;-70.704;2023-08-24T01:26:13;6.27;;;3.97;;
249;SDS011;109;19.806;-70.704;2023-08-24T01:28:49;5.43;;;3.80;;
249;SDS011;109;19.806;-70.704;2023-08-24T01:31:16;4.63;;;4.33;;
249;SDS011;109;19.806;-70.704;2023-08-24T01:33:49;4.60;;;4.10;;
249;SDS011;109;19.806;-70.704;2023-08-24T01:36:16;6.50;;;4.50;;
249;SDS011;109;19.806;-70.704;2023-08-24T01:39:02;7.77;;;4.50;;
249;SDS011;109;19.806;-70.704;2023-08-24T01:41:50;9.53;;;4.40;;
249;SDS011;109;19.806;-70.704;2023-08-24T01:44:33;4.70;;;4.30;;
249;SDS011;109;19.806;-70.704;2023-08-24T01:47:11;9.87;;;5.37;;
249;SDS011;109;19.806;-70.704;2023-08-24T01:49:38;7.43;;;5.90;;
249;SDS011;109;19.806;-70.704;2023-08-24T01:52:13;9.93;;;6.20;;
249;SDS011;109;19.806;-70.704;2023-08-24T01:54:41;13.13;;;6.90;;
249;SDS011;109;19.806;-70.704;2023-08-24T01:57:15;15.77;;;7.53;;
249;SDS011;109;19.806;-70.704;2023-08-24T01:59:42;12.10;;;7.30;;
249;SDS011;109;19.806;-70.704;2023-08-24T02:02:16;12.67;;;8.40;;
249;SDS011;109;19.806;-70.704;2023-08-24T02:04:43;15.03;;;9.13;;
249;SDS011;109;19.806;-70.704;2023-08-24T02:07:16;16.30;;;9.10;;
249;SDS011;109;19.806;-70.704;2023-08-24T02:09:42;12.50;;;8.70;;
249;SDS011;109;19.806;-70.704;2023-08-24T02:12:15;12.90;;;8.60;;
249;SDS011;109;19.806;-70.704;2023-08-24T02:14:42;14.27;;;9.80;;
249;SDS011;109;19.806;-70.704;2023-08-24T02:17:15;12.67;;;8.57;;
249;SDS011;109;19.806;-70.704;2023-08-24T02:19:42;12.60;;;8.73;;
249;SDS011;109;19.806;-70.704;2023-08-24T02:22:15;11.03;;;8.23;;
249;SDS011;109;19.806;-70.704;2023-08-24T02:24:42;17.73;;;8.93;;
249;SDS011;109;19.806;-70.704;2023-08-24T02:27:15;10.33;;;8.00;;
249;SDS011;109;19.806;-70.704;2023-08-24T02:29:49;13.13;;;9.07;;
249;SDS011;109;19.806;-70.704;2023-08-24T02:32:21;18.10;;;9.23;;
249;SDS011;109;19.806;-70.704;2023-08-24T02:34:48;23.53;;;9.00;;
249;SDS011;109;19.806;-70.704;2023-08-24T02:37:22;15.40;;;9.87;;
249;SDS011;109;19.806;-70.704;2023-08-24T02:39:48;17.87;;;10.13;;
249;SDS011;109;19.806;-70.704;2023-08-24T02:42:21;19.80;;;9.50;;
249;SDS011;109;19.806;-70.704;2023-08-24T02:45:08;21.17;;;9.93;;
249;SDS011;109;19.806;-70.704;2023-08-24T02:47:41;15.40;;;9.90;;
249;SDS011;109;19.806;-70.704;2023-08-24T02:50:08;23.13;;;9.63;;
249;SDS011;109;19.806;-70.704;2023-08-24T02:52:41;13.80;;;10.73;;
249;SDS011;109;19.806;-70.704;2023-08-24T02:55:08;18.93;;;8.93;;
249;SDS011;109;19.806;-70.704;2023-08-24T02:57:42;21.07;;;9.10;;
249;SDS011;109;19.806;-70.704;2023-08-24T03:00:09;10.17;;;7.97;;
249;SDS011;109;19.806;-70.704;2023-08-24T03:02:45;14.37;;;8.00;;
249;SDS011;109;19.806;-70.704;2023-08-24T03:05:13;12.37;;;7.53;;
249;SDS011;109;19.806;-70.704;2023-08-24T03:07:46;9.37;;;7.60;;
249;SDS011;109;19.806;-70.704;2023-08-24T03:10:13;13.50;;;8.10;;
249;SDS011;109;19.806;-70.704;2023-08-24T03:12:46;8.93;;;7.43;;
249;SDS011;109;19.806;-70.704;2023-08-24T03:15:13;12.57;;;8.10;;
249;SDS011;109;19.806;-70.704;2023-08-24T03:17:45;11.80;;;7.63;;
249;SDS011;109;19.806;-70.704;2023-08-24T03:20:12;18.13;;;8.60;;
249;SDS011;109;19.806;-70.704;2023-08-24T03:22:45;18.10;;;8.60;;
249;SDS011;109;19.806;-70.704;2023-08-24T03:25:12;10.47;;;8.00;;
249;SDS011;109;19.806;-70.704;2023-08-24T03:27:45;9.20;;;6.63;;
249;SDS011;109;19.806;-70.704;2023-08-24T03:30:20;10.97;;;7.50;;
249;SDS011;109;19.806;-70.704;2023-08-24T03:32:56;14.33;;;8.73;;
249;SDS011;109;19.806;-70.704;2023-08-24T03:35:31;10.00;;;7.73;;
249;SDS011;109;19.806;-70.704;2023-08-24T03:37:58;17.60;;;8.40;;
249;SDS011;109;19.806;-70.704;2023-08-24T03:40:32;15.87;;;7.83;;
249;SDS011;109;19.806;-70.704;2023-08-24T03:43:00;15.20;;;8.33;;
249;SDS011;109;19.806;-70.704;2023-08-24T03:45:34;18.13;;;9.60;;
249;SDS011;109;19.806;-70.704;2023-08-24T03:48:14;20.67;;;9.20;;
249;SDS011;109;19.806;-70.704;2023-08-24T03:50:41;31.10;;;10.67;;
249;SDS011;109;19.806;-70.704;2023-08-24T03:53:14;17.10;;;11.03;;
249;SDS011;109;19.806;-70.704;2023-08-24T03:55:41;23.83;;;10.43;;
249;SDS011;109;19.806;-70.704;2023-08-24T03:58:13;21.73;;;10.67;;
249;SDS011;109;19.806;-70.704;2023-08-24T04:00:40;17.33;;;9.67;;
249;SDS011;109;19.806;-70.704;2023-08-24T04:03:13;19.37;;;9.03;;
249;SDS011;109;19.806;-70.704;2023-08-24T04:05:40;21.10;;;9.57;;
249;SDS011;109;19.806;-70.704;2023-08-24T04:08:13;25.97;;;10.70;;
249;SDS011;109;19.806;-70.704;2023-08-24T04:10:40;15.83;;;9.10;;
249;SDS011;109;19.806;-70.704;2023-08-24T04:13:12;15.53;;;8.57;;
249;SDS011;109;19.806;-70.704;2023-08-24T04:15:39;12.43;;;7.93;;
249;SDS011;109;19.806;-70.704;2023-08-24T04:18:11;22.60;;;8.77;;
249;SDS011;109;19.806;-70.704;2023-08-24T04:20:38;17.80;;;7.17;;
249;SDS011;109;19.806;-70.704;2023-08-24T04:23:13;10.97;;;6.40;;
249;SDS011;109;19.806;-70.704;2023-08-24T04:25:40;14.10;;;6.80;;
249;SDS011;109;19.806;-70.704;2023-08-24T04:28:12;7.53;;;6.03;;
249;SDS011;109;19.806;-70.704;2023-08-24T04:30:52;9.00;;;6.50;;
249;SDS011;109;19.806;-70.704;2023-08-24T04:33:26;9.90;;;5.93;;
249;SDS011;109;19.806;-70.704;2023-08-24T04:35:53;15.50;;;6.70;;
249;SDS011;109;19.806;-70.704;2023-08-24T04:38:26;10.30;;;5.63;;
249;SDS011;109;19.806;-70.704;2023-08-24T04:40:54;6.53;;;5.03;;
249;SDS011;109;19.806;-70.704;2023-08-24T04:43:28;7.97;;;5.13;;
249;SDS011;109;19.806;-70.704;2023-08-24T04:46:15;11.30;;;6.00;;
249;SDS011;109;19.806;-70.704;2023-08-24T04:48:56;13.17;;;5.77;;
249;SDS011;109;19.806;-70.704;2023-08-24T04:51:28;7.53;;;5.07;;
249;SDS011;109;19.806;-70.704;2023-08-24T04:53:55;6.53;;;5.20;;
249;SDS011;109;19.806;-70.704;2023-08-24T04:56:27;10.87;;;5.10;;
249;SDS011;109;19.806;-70.704;2023-08-24T04:58:57;12.13;;;5.10;;
249;SDS011;109;19.806;-70.704;2023-08-24T05:01:32;9.33;;;5.20;;
249;SDS011;109;19.806;-70.704;2023-08-24T05:04:02;18.83;;;7.03;;
249;SDS011;109;19.806;-70.704;2023-08-24T05:06:35;6.60;;;4.70;;
249;SDS011;109;19.806;-70.704;2023-08-24T05:09:02;7.83;;;4.73;;
249;SDS011;109;19.806;-70.704;2023-08-24T05:11:35;10.60;;;4.80;;
249;SDS011;109;19.806;-70.704;2023-08-24T05:14:02;7.60;;;4.47;;
249;SDS011;109;19.806;-70.704;2023-08-24T05:16:35;8.47;;;4.80;;
249;SDS011;109;19.806;-70.704;2023-08-24T05:19:02;14.77;;;5.67;;
249;SDS011;109;19.806;-70.704;2023-08-24T05:21:35;11.93;;;4.97;;
249;SDS011;109;19.806;-70.704;2023-08-24T05:24:02;8.67;;;5.00;;
249;SDS011;109;19.806;-70.704;2023-08-24T05:26:36;12.37;;;5.90;;
249;SDS011;109;19.806;-70.704;2023-08-24T05:29:03;8.07;;;4.97;;
249;SDS011;109;19.806;-70.704;2023-08-24T05:31:43;8.50;;;5.00;;
249;SDS011;109;19.806;-70.704;2023-08-24T05:34:16;7.33;;;4.80;;
249;SDS011;109;19.806;-70.704;2023-08-24T05:36:43;6.77;;;4.80;;
249;SDS011;109;19.806;-70.704;2023-08-24T05:39:15;9.20;;;5.23;;
249;SDS011;109;19.806;-70.704;2023-08-24T05:41:52;10.73;;;5.20;;
249;SDS011;109;19.806;-70.704;2023-08-24T05:44:25;15.50;;;5.43;;
249;SDS011;109;19.806;-70.704;2023-08-24T05:47:05;5.63;;;4.50;;
249;SDS011;109;19.806;-70.704;2023-08-24T05:49:32;13.63;;;5.23;;
249;SDS011;109;19.806;-70.704;2023-08-24T05:52:05;5.30;;;4.47;;
249;SDS011;109;19.806;-70.704;2023-08-24T05:54:32;12.83;;;4.33;;
249;SDS011;109;19.806;-70.704;2023-08-24T05:57:04;11.67;;;4.43;;
249;SDS011;109;19.806;-70.704;2023-08-24T05:59:32;10.67;;;4.70;;
249;SDS011;109;19.806;-70.704;2023-08-24T06:02:05;8.47;;;4.60;;
249;SDS011;109;19.806;-70.704;2023-08-24T06:04:32;7.67;;;4.47;;
249;SDS011;109;19.806;-70.704;2023-08-24T06:07:04;14.37;;;5.03;;
249;SDS011;109;19.806;-70.704;2023-08-24T06:09:31;13.20;;;5.50;;
249;SDS011;109;19.806;-70.704;2023-08-24T06:12:03;8.83;;;5.40;;
249;SDS011;109;19.806;-70.704;2023-08-24T06:14:30;8.00;;;4.73;;
249;SDS011;109;19.806;-70.704;2023-08-24T06:17:03;15.60;;;5.73;;
249;SDS011;109;19.806;-70.704;2023-08-24T06:19:30;9.43;;;5.70;;
249;SDS011;109;19.806;-70.704;2023-08-24T06:22:03;14.80;;;5.57;;
249;SDS011;109;19.806;-70.704;2023-08-24T06:24:30;11.53;;;5.20;;
249;SDS011;109;19.806;-70.704;2023-08-24T06:27:04;17.43;;;5.17;;
249;SDS011;109;19.806;-70.704;2023-08-24T06:29:42;6.67;;;5.43;;
249;SDS011;109;19.806;-70.704;2023-08-24T06:32:16;10.60;;;5.57;;
249;SDS011;109;19.806;-70.704;2023-08-24T06:34:42;13.27;;;5.17;;
249;SDS011;109;19.806;-70.704;2023-08-24T06:37:15;13.50;;;5.60;;
249;SDS011;109;19.806;-70.704;2023-08-24T06:39:42;8.77;;;5.27;;
249;SDS011;109;19.806;-70.704;2023-08-24T06:42:14;11.10;;;5.30;;
249;SDS011;109;19.806;-70.704;2023-08-24T06:45:01;7.40;;;5.23;;
249;SDS011;109;19.806;-70.704;2023-08-24T06:47:34;11.60;;;4.90;;
249;SDS011;109;19.806;-70.704;2023-08-24T06:50:01;9.10;;;5.70;;
249;SDS011;109;19.806;-70.704;2023-08-24T06:52:35;7.70;;;4.83;;
249;SDS011;109;19.806;-70.704;2023-08-24T06:55:01;9.83;;;4.87;;
249;SDS011;109;19.806;-70.704;2023-08-24T06:57:35;10.53;;;4.90;;
249;SDS011;109;19.806;-70.704;2023-08-24T07:00:02;11.77;;;5.20;;
249;SDS011;109;19.806;-70.704;2023-08-24T07:02:47;6.63;;;4.83;;
249;SDS011;109;19.806;-70.704;2023-08-24T07:05:20;8.83;;;4.70;;
249;SDS011;109;19.806;-70.704;2023-08-24T07:07:47;9.83;;;5.33;;
249;SDS011;109;19.806;-70.704;2023-08-24T07:10:21;8.60;;;4.83;;
249;SDS011;109;19.806;-70.704;2023-08-24T07:12:48;10.80;;;4.90;;
249;SDS011;109;19.806;-70.704;2023-08-24T07:15:21;12.23;;;5.53;;
249;SDS011;109;19.806;-70.704;2023-08-24T07:17:48;13.40;;;5.47;;
249;SDS011;109;19.806;-70.704;2023-08-24T07:20:21;25.63;;;6.17;;
249;SDS011;109;19.806;-70.704;2023-08-24T07:22:49;15.20;;;5.83;;
249;SDS011;109;19.806;-70.704;2023-08-24T07:25:22;12.93;;;4.83;;
249;SDS011;109;19.806;-70.704;2023-08-24T07:27:49;15.60;;;5.60;;
249;SDS011;109;19.806;-70.704;2023-08-24T07:30:21;10.47;;;4.83;;
249;SDS011;109;19.806;-70.704;2023-08-24T07:32:48;8.10;;;4.77;;
249;SDS011;109;19.806;-70.704;2023-08-24T07:35:20;19.97;;;5.83;;
249;SDS011;109;19.806;-70.704;2023-08-24T07:37:50;8.20;;;5.10;;
249;SDS011;109;19.806;-70.704;2023-08-24T07:40:23;13.83;;;5.17;;
249;SDS011;109;19.806;-70.704;2023-08-24T07:42:51;13.13;;;4.93;;
249;SDS011;109;19.806;-70.704;2023-08-24T07:45:27;15.83;;;5.20;;
249;SDS011;109;19.806;-70.704;2023-08-24T07:48:15;6.23;;;4.57;;
249;SDS011;109;19.806;-70.704;2023-08-24T07:50:48;13.53;;;5.20;;
249;SDS011;109;19.806;-70.704;2023-08-24T07:53:15;9.50;;;4.77;;
249;SDS011;109;19.806;-70.704;2023-08-24T07:55:48;16.83;;;5.20;;
249;SDS011;109;19.806;-70.704;2023-08-24T07:58:15;6.97;;;4.27;;
249;SDS011;109;19.806;-70.704;2023-08-24T08:00:51;7.13;;;5.20;;
249;SDS011;109;19.806;-70.704;2023-08-24T08:03:19;8.13;;;4.83;;
249;SDS011;109;19.806;-70.704;2023-08-24T08:05:52;8.50;;;4.97;;
249;SDS011;109;19.806;-70.704;2023-08-24T08:08:20;6.40;;;4.57;;
249;SDS011;109;19.806;-70.704;2023-08-24T08:10:59;5.60;;;4.60;;
249;SDS011;109;19.806;-70.704;2023-08-24T08:13:33;11.47;;;5.07;;
249;SDS011;109;19.806;-70.704;2023-08-24T08:16:00;8.20;;;5.03;;
249;SDS011;109;19.806;-70.704;2023-08-24T08:18:36;13.80;;;5.60;;
249;SDS011;109;19.806;-70.704;2023-08-24T08:21:09;10.40;;;5.27;;
249;SDS011;109;19.806;-70.704;2023-08-24T08:23:44;8.70;;;5.03;;
249;SDS011;109;19.806;-70.704;2023-08-24T08:26:11;9.40;;;5.10;;
249;SDS011;109;19.806;-70.704;2023-08-24T08:28:45;13.00;;;4.93;;
249;SDS011;109;19.806;-70.704;2023-08-24T08:31:12;12.70;;;6.17;;
249;SDS011;109;19.806;-70.704;2023-08-24T08:33:45;8.00;;;5.23;;
249;SDS011;109;19.806;-70.704;2023-08-24T08:36:11;6.90;;;4.83;;
249;SDS011;109;19.806;-70.704;2023-08-24T08:38:44;5.33;;;4.87;;
249;SDS011;109;19.806;-70.704;2023-08-24T08:41:11;12.93;;;4.90;;
249;SDS011;109;19.806;-70.704;2023-08-24T08:43:47;9.60;;;5.03;;
249;SDS011;109;19.806;-70.704;2023-08-24T08:46:35;12.67;;;5.27;;
249;SDS011;109;19.806;-70.704;2023-08-24T08:49:09;9.60;;;6.17;;
249;SDS011;109;19.806;-70.704;2023-08-24T08:51:36;11.10;;;6.87;;
249;SDS011;109;19.806;-70.704;2023-08-24T08:54:10;11.27;;;7.33;;
249;SDS011;109;19.806;-70.704;2023-08-24T08:56:37;14.60;;;8.63;;
249;SDS011;109;19.806;-70.704;2023-08-24T08:59:11;12.17;;;8.13;;
249;SDS011;109;19.806;-70.704;2023-08-24T09:01:40;10.30;;;7.27;;
249;SDS011;109;19.806;-70.704;2023-08-24T09:04:16;15.17;;;7.90;;
249;SDS011;109;19.806;-70.704;2023-08-24T09:06:42;13.07;;;7.73;;
249;SDS011;109;19.806;-70.704;2023-08-24T09:09:17;11.50;;;7.63;;
249;SDS011;109;19.806;-70.704;2023-08-24T09:11:43;11.80;;;8.13;;
249;SDS011;109;19.806;-70.704;2023-08-24T09:14:20;13.60;;;7.20;;
249;SDS011;109;19.806;-70.704;2023-08-24T09:16:46;21.03;;;6.83;;
249;SDS011;109;19.806;-70.704;2023-08-24T09:19:20;6.87;;;6.33;;
249;SDS011;109;19.806;-70.704;2023-08-24T09:22:02;16.23;;;6.43;;
249;SDS011;109;19.806;-70.704;2023-08-24T09:24:33;9.73;;;5.90;;
249;SDS011;109;19.806;-70.704;2023-08-24T09:27:15;11.30;;;6.10;;
249;SDS011;109;19.806;-70.704;2023-08-24T09:29:50;9.63;;;5.33;;
249;SDS011;109;19.806;-70.704;2023-08-24T09:32:24;7.23;;;5.77;;
249;SDS011;109;19.806;-70.704;2023-08-24T09:35:03;9.27;;;5.00;;
249;SDS011;109;19.806;-70.704;2023-08-24T09:37:39;7.27;;;5.07;;
249;SDS011;109;19.806;-70.704;2023-08-24T09:40:15;11.30;;;6.20;;
249;SDS011;109;19.806;-70.704;2023-08-24T09:42:49;7.47;;;6.60;;
249;SDS011;109;19.806;-70.704;2023-08-24T09:45:35;10.23;;;6.33;;
249;SDS011;109;19.806;-70.704;2023-08-24T09:48:09;10.30;;;5.30;;
249;SDS011;109;19.806;-70.704;2023-08-24T09:50:35;6.53;;;5.50;;
249;SDS011;109;19.806;-70.704;2023-08-24T09:53:09;8.73;;;5.07;;
249;SDS011;109;19.806;-70.704;2023-08-24T09:55:55;6.23;;;5.10;;
249;SDS011;109;19.806;-70.704;2023-08-24T09:58:39;8.23;;;5.50;;
249;SDS011;109;19.806;-70.704;2023-08-24T10:01:05;7.10;;;5.10;;
249;SDS011;109;19.806;-70.704;2023-08-24T10:03:39;10.87;;;5.10;;
249;SDS011;109;19.806;-70.704;2023-08-24T10:06:06;10.93;;;5.40;;
249;SDS011;109;19.806;-70.704;2023-08-24T10:08:43;7.67;;;5.53;;
249;SDS011;109;19.806;-70.704;2023-08-24T10:11:23;8.13;;;5.33;;
249;SDS011;109;19.806;-70.704;2023-08-24T10:16:53;7.80;;;5.87;;
249;SDS011;109;19.806;-70.704;2023-08-24T10:19:21;12.07;;;5.80;;
249;SDS011;109;19.806;-70.704;2023-08-24T10:21:55;8.60;;;5.50;;
249;SDS011;109;19.806;-70.704;2023-08-24T10:24:33;13.30;;;4.93;;
249;SDS011;109;19.806;-70.704;2023-08-24T10:27:08;7.97;;;5.87;;
249;SDS011;109;19.806;-70.704;2023-08-24T10:29:43;6.83;;;4.90;;
249;SDS011;109;19.806;-70.704;2023-08-24T10:34:58;13.60;;;5.87;;
249;SDS011;109;19.806;-70.704;2023-08-24T10:37:44;5.80;;;5.50;;
249;SDS011;109;19.806;-70.704;2023-08-24T10:40:34;7.17;;;5.47;;
249;SDS011;109;19.806;-70.704;2023-08-24T10:43:07;8.10;;;5.63;;
249;SDS011;109;19.806;-70.704;2023-08-24T10:46:16;11.17;;;6.20;;
249;SDS011;109;19.806;-70.704;2023-08-24T10:51:19;15.63;;;7.03;;
249;SDS011;109;19.806;-70.704;2023-08-24T10:53:58;8.63;;;6.37;;
249;SDS011;109;19.806;-70.704;2023-08-24T10:56:30;10.97;;;6.27;;
249;SDS011;109;19.806;-70.704;2023-08-24T10:59:11;12.20;;;7.10;;
249;SDS011;109;19.806;-70.704;2023-08-24T11:01:40;12.97;;;6.93;;
249;SDS011;109;19.806;-70.704;2023-08-24T11:04:07;9.10;;;6.37;;
249;SDS011;109;19.806;-70.704;2023-08-24T11:06:34;15.13;;;6.20;;
249;SDS011;109;19.806;-70.704;2023-08-24T11:09:17;15.90;;;7.20;;
249;SDS011;109;19.806;-70.704;2023-08-24T11:11:55;7.40;;;6.37;;
249;SDS011;109;19.806;-70.704;2023-08-24T11:14:25;8.33;;;6.27;;
249;SDS011;109;19.806;-70.704;2023-08-24T11:16:55;15.40;;;6.50;;
249;SDS011;109;19.806;-70.704;2023-08-24T11:19:25;6.67;;;6.27;;
249;SDS011;109;19.806;-70.704;2023-08-24T11:21:51;16.33;;;7.40;;
249;SDS011;109;19.806;-70.704;2023-08-24T11:24:19;14.50;;;7.97;;
249;SDS011;109;19.806;-70.704;2023-08-24T11:26:46;12.97;;;7.53;;
249;SDS011;109;19.806;-70.704;2023-08-24T11:29:14;7.00;;;6.63;;
249;SDS011;109;19.806;-70.704;2023-08-24T11:31:41;13.33;;;7.67;;
249;SDS011;109;19.806;-70.704;2023-08-24T11:34:08;11.87;;;6.30;;
249;SDS011;109;19.806;-70.704;2023-08-24T11:36:45;14.20;;;7.00;;
249;SDS011;109;19.806;-70.704;2023-08-24T11:39:17;12.43;;;7.43;;
249;SDS011;109;19.806;-70.704;2023-08-24T11:41:56;9.70;;;6.93;;
249;SDS011;109;19.806;-70.704;2023-08-24T11:44:27;16.10;;;7.30;;
249;SDS011;109;19.806;-70.704;2023-08-24T11:46:58;14.80;;;7.53;;
249;SDS011;109;19.806;-70.704;2023-08-24T11:49:25;41.13;;;9.67;;
249;SDS011;109;19.806;-70.704;2023-08-24T11:51:52;19.20;;;8.63;;
249;SDS011;109;19.806;-70.704;2023-08-24T11:54:18;15.17;;;8.80;;
249;SDS011;109;19.806;-70.704;2023-08-24T11:56:46;46.23;;;10.57;;
249;SDS011;109;19.806;-70.704;2023-08-24T11:59:13;34.97;;;9.60;;
249;SDS011;109;19.806;-70.704;2023-08-24T12:01:41;14.50;;;8.90;;
249;SDS011;109;19.806;-70.704;2023-08-24T12:04:08;17.23;;;9.97;;
249;SDS011;109;19.806;-70.704;2023-08-24T12:06:35;17.93;;;9.90;;
249;SDS011;109;19.806;-70.704;2023-08-24T12:09:04;14.67;;;10.53;;
249;SDS011;109;19.806;-70.704;2023-08-24T12:11:34;15.07;;;10.50;;
249;SDS011;109;19.806;-70.704;2023-08-24T12:14:05;15.30;;;11.70;;
249;SDS011;109;19.806;-70.704;2023-08-24T12:16:35;21.23;;;12.57;;
249;SDS011;109;19.806;-70.704;2023-08-24T12:19:02;23.00;;;12.23;;
249;SDS011;109;19.806;-70.704;2023-08-24T12:21:33;25.33;;;14.80;;
249;SDS011;109;19.806;-70.704;2023-08-24T12:24:00;19.93;;;13.23;;
249;SDS011;109;19.806;-70.704;2023-08-24T12:26:35;16.13;;;10.20;;
249;SDS011;109;19.806;-70.704;2023-08-24T12:29:03;12.57;;;7.10;;
249;SDS011;109;19.806;-70.704;2023-08-24T12:31:34;15.70;;;7.57;;
249;SDS011;109;19.806;-70.704;2023-08-24T12:34:02;17.07;;;7.67;;
249;SDS011;109;19.806;-70.704;2023-08-24T12:36:33;11.33;;;7.07;;
249;SDS011;109;19.806;-70.704;2023-08-24T12:39:02;9.10;;;6.37;;
249;SDS011;109;19.806;-70.704;2023-08-24T12:41:33;7.90;;;6.27;;
249;SDS011;109;19.806;-70.704;2023-08-24T12:44:00;8.30;;;6.30;;
249;SDS011;109;19.806;-70.704;2023-08-24T12:46:31;9.00;;;6.50;;
249;SDS011;109;19.806;-70.704;2023-08-24T12:48:58;9.83;;;7.00;;
249;SDS011;109;19.806;-70.704;2023-08-24T12:51:25;16.77;;;6.70;;
249;SDS011;109;19.806;-70.704;2023-08-24T12:53:51;12.10;;;7.20;;
249;SDS011;109;19.806;-70.704;2023-08-24T12:56:18;10.80;;;7.97;;
249;SDS011;109;19.806;-70.704;2023-08-24T12:58:44;11.03;;;7.30;;
249;SDS011;109;19.806;-70.704;2023-08-24T13:01:11;8.63;;;7.47;;
249;SDS011;109;19.806;-70.704;2023-08-24T13:03:38;13.50;;;7.87;;
249;SDS011;109;19.806;-70.704;2023-08-24T13:06:05;12.30;;;7.73;;
249;SDS011;109;19.806;-70.704;2023-08-24T13:08:32;10.13;;;6.90;;
249;SDS011;109;19.806;-70.704;2023-08-24T13:10:59;11.57;;;7.20;;
249;SDS011;109;19.806;-70.704;2023-08-24T13:13:25;12.90;;;7.70;;
249;SDS011;109;19.806;-70.704;2023-08-24T13:15:51;12.67;;;6.77;;
249;SDS011;109;19.806;-70.704;2023-08-24T13:18:18;9.60;;;6.27;;
249;SDS011;109;19.806;-70.704;2023-08-24T13:20:44;15.00;;;6.10;;
249;SDS011;109;19.806;-70.704;2023-08-24T13:23:11;13.77;;;5.90;;
249;SDS011;109;19.806;-70.704;2023-08-24T13:25:37;9.90;;;5.53;;
249;SDS011;109;19.806;-70.704;2023-08-24T13:28:04;10.27;;;5.30;;
249;SDS011;109;19.806;-70.704;2023-08-24T13:30:30;10.93;;;5.40;;
249;SDS011;109;19.806;-70.704;2023-08-24T13:32:57;8.27;;;5.27;;
249;SDS011;109;19.806;-70.704;2023-08-24T13:35:23;8.80;;;5.00;;
249;SDS011;109;19.806;-70.704;2023-08-24T13:37:50;10.40;;;4.67;;
249;SDS011;109;19.806;-70.704;2023-08-24T13:40:16;6.83;;;4.50;;
249;SDS011;109;19.806;-70.704;2023-08-24T13:42:44;9.27;;;5.10;;
249;SDS011;109;19.806;-70.704;2023-08-24T13:45:11;11.47;;;4.57;;
249;SDS011;109;19.806;-70.704;2023-08-24T13:47:37;19.23;;;6.10;;
249;SDS011;109;19.806;-70.704;2023-08-24T13:50:04;9.43;;;5.10;;
249;SDS011;109;19.806;-70.704;2023-08-24T13:52:31;10.87;;;5.13;;
249;SDS011;109;19.806;-70.704;2023-08-24T13:54:57;7.77;;;4.70;;
249;SDS011;109;19.806;-70.704;2023-08-24T13:57:24;5.10;;;4.67;;
249;SDS011;109;19.806;-70.704;2023-08-24T13:59:51;17.00;;;5.63;;
249;SDS011;109;19.806;-70.704;2023-08-24T14:02:17;8.47;;;4.93;;
249;SDS011;109;19.806;-70.704;2023-08-24T14:04:44;5.33;;;5.03;;
249;SDS011;109;19.806;-70.704;2023-08-24T14:07:10;8.87;;;5.73;;
249;SDS011;109;19.806;-70.704;2023-08-24T14:09:36;11.03;;;5.70;;
249;SDS011;109;19.806;-70.704;2023-08-24T14:12:03;7.43;;;5.10;;
249;SDS011;109;19.806;-70.704;2023-08-24T14:14:30;12.03;;;5.77;;
249;SDS011;109;19.806;-70.704;2023-08-24T14:16:56;17.20;;;5.27;;
249;SDS011;109;19.806;-70.704;2023-08-24T14:19:23;10.27;;;5.33;;
249;SDS011;109;19.806;-70.704;2023-08-24T14:21:50;10.67;;;5.33;;
249;SDS011;109;19.806;-70.704;2023-08-24T14:24:17;9.70;;;5.53;;
249;SDS011;109;19.806;-70.704;2023-08-24T14:26:43;9.27;;;5.00;;
249;SDS011;109;19.806;-70.704;2023-08-24T14:29:13;11.80;;;6.40;;
249;SDS011;109;19.806;-70.704;2023-08-24T14:31:40;8.80;;;5.40;;
249;SDS011;109;19.806;-70.704;2023-08-24T14:34:06;12.03;;;5.07;;
249;SDS011;109;19.806;-70.704;2023-08-24T14:36:33;7.50;;;4.90;;
249;SDS011;109;19.806;-70.704;2023-08-24T14:39:01;13.83;;;5.43;;
249;SDS011;109;19.806;-70.704;2023-08-24T14:41:27;33.93;;;7.70;;
249;SDS011;109;19.806;-70.704;2023-08-24T14:43:54;29.50;;;7.10;;
249;SDS011;109;19.806;-70.704;2023-08-24T14:46:20;15.63;;;6.30;;
249;SDS011;109;19.806;-70.704;2023-08-24T14:48:47;22.37;;;6.07;;
249;SDS011;109;19.806;-70.704;2023-08-24T14:51:13;22.80;;;6.80;;
249;SDS011;109;19.806;-70.704;2023-08-24T14:53:40;12.10;;;5.90;;
249;SDS011;109;19.806;-70.704;2023-08-24T14:56:06;16.30;;;5.90;;
249;SDS011;109;19.806;-70.704;2023-08-24T14:58:33;21.30;;;6.30;;
249;SDS011;109;19.806;-70.704;2023-08-24T15:00:59;13.93;;;5.60;;
249;SDS011;109;19.806;-70.704;2023-08-24T15:03:26;20.40;;;6.60;;
249;SDS011;109;19.806;-70.704;2023-08-24T15:06:02;12.20;;;5.40;;
249;SDS011;109;19.806;-70.704;2023-08-24T15:08:33;12.50;;;5.77;;
249;SDS011;109;19.806;-70.704;2023-08-24T15:11:00;18.83;;;6.53;;
249;SDS011;109;19.806;-70.704;2023-08-24T15:13:28;10.20;;;5.30;;
249;SDS011;109;19.806;-70.704;2023-08-24T15:15:56;6.50;;;5.50;;
249;SDS011;109;19.806;-70.704;2023-08-24T15:18:23;12.07;;;5.77;;
249;SDS011;109;19.806;-70.704;2023-08-24T15:20:52;25.93;;;8.33;;
249;SDS011;109;19.806;-70.704;2023-08-24T15:25:49;19.57;;;5.70;;
249;SDS011;109;19.806;-70.704;2023-08-24T15:28:15;10.80;;;5.63;;
249;SDS011;109;19.806;-70.704;2023-08-24T15:30:42;18.50;;;6.33;;
249;SDS011;109;19.806;-70.704;2023-08-24T15:33:08;10.27;;;5.73;;
249;SDS011;109;19.806;-70.704;2023-08-24T15:35:35;22.77;;;6.50;;
249;SDS011;109;19.806;-70.704;2023-08-24T15:38:03;9.87;;;5.63;;
249;SDS011;109;19.806;-70.704;2023-08-24T15:40:30;13.87;;;6.37;;